createdAt,value
2019-03-01T00:03:34.392Z,67.15
2019-03-01T00:06:24.956Z,68.49
2019-03-01T00:09:15.503Z,69.77
2019-03-01T00:12:07.991Z,70.39
2019-03-01T00:15:00.446Z,71.64
2019-03-01T00:17:52.893Z,73.89
2019-03-01T00:20:43.414Z,74.04
2019-03-01T00:23:33.955Z,75.34
2019-03-01T00:26:26.410Z,75.67
2019-03-01T00:29:18.868Z,75.86
2019-03-01T00:32:09.442Z,77.01
2019-03-01T00:35:01.860Z,76.77
2019-03-01T00:37:52.418Z,77.58
2019-03-01T00:43:43.008Z,78.03
2019-03-01T00:45:53.790Z,78.44
2019-03-01T00:48:04.667Z,78.61
2019-03-01T00:50:15.409Z,78.18
2019-03-01T00:52:26.202Z,78.40
2019-03-01T00:54:37.099Z,78.67
2019-03-01T00:56:47.912Z,78.72
2019-03-01T00:58:58.734Z,78.59
2019-03-01T01:01:09.525Z,78.81
2019-03-01T01:03:20.326Z,78.88
2019-03-01T01:05:31.133Z,78.65
2019-03-01T01:07:41.947Z,78.78
2019-03-01T01:09:52.762Z,78.67
2019-03-01T01:12:03.553Z,78.62
2019-03-01T01:14:14.373Z,78.73
2019-03-01T01:16:25.178Z,78.74
2019-03-01T01:18:35.985Z,79.14
2019-03-01T01:20:46.814Z,79.03
2019-03-01T01:22:57.607Z,79.11
2019-03-01T01:25:50.066Z,78.23
2019-03-01T01:28:00.853Z,78.70
2019-03-01T01:30:53.313Z,78.20
2019-03-01T01:33:04.112Z,77.94
2019-03-01T01:35:14.922Z,77.39
2019-03-01T01:37:25.732Z,77.90
2019-03-01T01:39:36.521Z,78.33
2019-03-01T01:41:47.335Z,78.36
2019-03-01T01:43:58.132Z,78.66
2019-03-01T01:46:08.937Z,78.71
2019-03-01T01:48:19.744Z,78.43
2019-03-01T01:50:30.565Z,78.61
2019-03-01T01:52:41.355Z,79.10
2019-03-01T01:54:52.142Z,78.77
2019-03-01T01:57:02.961Z,78.67
2019-03-01T01:59:13.764Z,78.68
2019-03-01T02:01:24.601Z,79.04
2019-03-01T02:03:35.406Z,79.11
2019-03-01T02:05:46.217Z,78.82
2019-03-01T02:07:57.018Z,78.94
2019-03-01T02:10:49.511Z,78.91
2019-03-01T02:13:00.347Z,78.69
2019-03-01T02:15:52.836Z,78.70
2019-03-01T02:18:45.283Z,78.97
2019-03-01T02:20:56.090Z,78.49
2019-03-01T02:23:06.924Z,78.38
2019-03-01T02:25:17.717Z,78.37
2019-03-01T02:27:28.618Z,78.25
2019-03-01T02:29:39.405Z,78.41
2019-03-01T02:32:31.861Z,78.44
2019-03-01T02:34:42.646Z,78.53
2019-03-01T02:36:53.497Z,78.71
2019-03-01T02:39:04.313Z,78.58
2019-03-01T02:41:15.108Z,78.51
2019-03-01T02:43:25.907Z,78.50
2019-03-01T02:45:36.702Z,78.51
2019-03-01T02:47:47.613Z,78.69
2019-03-01T02:49:58.411Z,79.05
2019-03-01T02:52:09.223Z,79.39
2019-03-01T02:54:20.044Z,79.37
2019-03-01T02:56:30.842Z,79.47
2019-03-01T02:58:41.660Z,79.57
2019-03-01T03:00:52.470Z,79.51
2019-03-01T03:03:03.485Z,79.83
2019-03-01T03:05:14.374Z,80.06
2019-03-01T03:07:45.086Z,79.81
2019-03-01T03:09:55.896Z,79.77
2019-03-01T03:12:06.689Z,79.47
2019-03-01T03:14:17.505Z,79.59
2019-03-01T03:16:28.333Z,79.66
2019-03-01T03:18:39.133Z,79.73
2019-03-01T03:20:49.938Z,79.61
2019-03-01T03:23:00.747Z,79.35
2019-03-01T03:25:53.212Z,79.30
2019-03-01T03:28:04.024Z,79.33
2019-03-01T03:30:56.460Z,79.40
2019-03-01T03:33:07.301Z,79.88
2019-03-01T03:35:18.095Z,80.00
2019-03-01T03:37:28.980Z,80.04
2019-03-01T03:39:39.783Z,80.28
2019-03-01T03:41:50.598Z,80.41
2019-03-01T03:44:01.413Z,80.40
2019-03-01T03:46:12.223Z,80.57
2019-03-01T03:48:23.008Z,80.68
2019-03-01T03:50:33.939Z,80.71
2019-03-01T03:52:44.735Z,81.08
2019-03-01T03:54:55.582Z,80.82
2019-03-01T03:57:06.396Z,81.05
2019-03-01T03:59:17.288Z,81.56
2019-03-01T04:01:28.161Z,82.03
2019-03-01T04:03:39.003Z,82.14
2019-03-01T04:05:49.817Z,82.47
2019-03-01T04:08:00.707Z,82.73
2019-03-01T04:10:11.814Z,82.80
2019-03-01T04:12:22.631Z,82.87
2019-03-01T04:14:33.453Z,82.88
2019-03-01T04:16:44.255Z,83.07
2019-03-01T04:18:55.063Z,82.94
2019-03-01T04:21:05.868Z,83.18
2019-03-01T04:23:16.660Z,83.37
2019-03-01T04:25:27.472Z,83.36
2019-03-01T04:27:38.289Z,83.27
2019-03-01T04:29:49.090Z,83.29
2019-03-01T04:31:59.919Z,83.17
2019-03-01T04:34:10.718Z,83.06
2019-03-01T04:36:21.554Z,83.39
2019-03-01T04:38:32.379Z,83.47
2019-03-01T04:40:43.197Z,83.29
2019-03-01T04:42:53.983Z,83.33
2019-03-01T04:45:46.470Z,83.23
2019-03-01T04:47:57.275Z,83.35
2019-03-01T04:50:49.721Z,83.31
2019-03-01T04:53:00.520Z,83.37
2019-03-01T04:55:33.084Z,83.40
2019-03-01T04:57:43.895Z,83.30
2019-03-01T04:59:54.687Z,83.25
2019-03-01T05:02:05.539Z,82.91
2019-03-01T05:04:16.322Z,82.88
2019-03-01T05:06:27.123Z,82.81
2019-03-01T05:08:37.958Z,82.84
2019-03-01T05:10:48.766Z,83.02
2019-03-01T05:12:59.578Z,83.08
2019-03-01T05:15:30.265Z,82.87
2019-03-01T05:17:41.169Z,82.86
2019-03-01T05:19:51.971Z,82.68
2019-03-01T05:22:02.872Z,82.53
2019-03-01T05:24:13.682Z,82.45
2019-03-01T05:26:24.465Z,82.50
2019-03-01T05:28:35.350Z,82.41
2019-03-01T05:30:46.132Z,82.35
2019-03-01T05:32:56.945Z,82.52
2019-03-01T05:35:08.046Z,82.67
2019-03-01T05:37:18.862Z,82.85
2019-03-01T05:39:29.675Z,82.84
2019-03-01T05:41:40.873Z,82.75
2019-03-01T05:43:51.721Z,82.69
2019-03-01T05:46:02.510Z,82.75
2019-03-01T05:48:13.326Z,82.84
2019-03-01T05:50:24.111Z,82.81
2019-03-01T05:52:34.901Z,83.20
2019-03-01T05:54:45.709Z,83.36
2019-03-01T05:56:56.517Z,83.52
2019-03-01T05:59:27.215Z,83.58
2019-03-01T06:02:17.748Z,83.65
2019-03-01T06:04:50.327Z,83.63
2019-03-01T06:07:40.862Z,84.15
2019-03-01T06:10:33.335Z,84.53
2019-03-01T06:13:25.777Z,84.52
2019-03-01T06:16:16.320Z,84.97
2019-03-01T06:19:06.873Z,85.08
2019-03-01T06:21:59.328Z,83.89
2019-03-01T06:24:49.988Z,83.72
2019-03-01T06:27:40.539Z,83.98
2019-03-01T06:30:32.995Z,83.41
2019-03-01T06:33:25.434Z,83.14
2019-03-01T06:36:15.986Z,82.85
2019-03-01T06:39:08.465Z,83.01
2019-03-01T06:41:59.020Z,83.10
2019-03-01T06:44:49.558Z,83.84
2019-03-01T06:47:40.132Z,83.77
2019-03-01T06:50:10.791Z,83.95
2019-03-01T06:54:43.781Z,84.34
2019-03-01T06:56:54.586Z,84.49
2019-03-01T06:59:05.490Z,84.69
2019-03-01T07:06:11.113Z,85.00
2019-03-01T07:08:21.933Z,85.19
2019-03-01T07:10:32.732Z,85.65
2019-03-01T07:12:43.562Z,85.76
2019-03-01T07:14:54.356Z,85.99
2019-03-01T07:17:05.252Z,86.00
2019-03-01T07:19:16.077Z,86.05
2019-03-01T07:21:26.972Z,86.10
2019-03-01T07:23:37.807Z,86.21
2019-03-01T07:25:48.620Z,86.22
2019-03-01T07:27:59.397Z,86.41
2019-03-01T07:30:51.923Z,86.59
2019-03-01T07:33:02.829Z,86.61
2019-03-01T07:35:13.692Z,86.76
2019-03-01T07:37:24.508Z,86.64
2019-03-01T07:39:35.330Z,86.52
2019-03-01T07:41:46.170Z,86.38
2019-03-01T07:43:56.981Z,86.46
2019-03-01T07:46:07.770Z,85.96
2019-03-01T07:48:18.566Z,85.78
2019-03-01T07:50:29.500Z,84.51
2019-03-01T07:52:40.393Z,83.37
2019-03-01T07:54:52.957Z,83.08
2019-03-01T07:57:03.923Z,83.02
2019-03-01T07:59:14.738Z,83.14
2019-03-01T08:01:28.931Z,84.05
2019-03-01T08:03:38.368Z,84.17
2019-03-01T08:05:49.188Z,84.39
2019-03-01T08:08:03.557Z,84.88
2019-03-01T08:10:56.428Z,84.98
2019-03-01T08:13:07.101Z,84.91
2019-03-01T08:15:18.039Z,84.70
2019-03-01T08:17:31.586Z,84.80
2019-03-01T08:19:41.562Z,85.38
2019-03-01T08:21:52.390Z,85.33
2019-03-01T08:24:03.175Z,85.21
2019-03-01T08:26:14.003Z,85.46
2019-03-01T08:28:24.810Z,85.31
2019-03-01T08:30:35.793Z,85.26
2019-03-01T08:32:46.590Z,85.10
2019-03-01T08:34:57.400Z,85.04
2019-03-01T08:37:08.311Z,84.92
2019-03-01T08:39:19.070Z,85.09
2019-03-01T08:41:29.888Z,85.14
2019-03-01T08:43:40.688Z,85.21
2019-03-01T08:45:51.535Z,85.26
2019-03-01T08:48:02.555Z,85.08
2019-03-01T08:50:35.104Z,84.99
2019-03-01T08:52:45.967Z,85.10
2019-03-01T08:55:00.133Z,85.16
2019-03-01T08:57:09.481Z,85.21
2019-03-01T08:59:20.318Z,84.77
2019-03-01T09:01:31.842Z,84.57
2019-03-01T09:04:25.521Z,84.40
2019-03-01T09:06:36.340Z,84.55
2019-03-01T09:08:47.141Z,84.41
2019-03-01T09:10:57.978Z,84.32
2019-03-01T09:13:08.804Z,84.22
2019-03-01T09:15:19.596Z,84.25
2019-03-01T09:17:30.443Z,84.25
2019-03-01T09:19:41.233Z,83.74
2019-03-01T09:21:52.074Z,83.70
2019-03-01T09:24:02.989Z,84.26
2019-03-01T09:26:16.728Z,84.20
2019-03-01T09:28:26.524Z,84.23
2019-03-01T09:30:40.285Z,84.21
2019-03-01T09:32:50.148Z,83.81
2019-03-01T09:35:20.823Z,83.61
2019-03-01T09:37:32.486Z,83.24
2019-03-01T09:39:44.376Z,83.00
2019-03-01T09:42:02.923Z,82.96
2019-03-01T09:44:07.870Z,82.94
2019-03-01T09:46:20.838Z,82.58
2019-03-01T09:48:31.580Z,82.29
2019-03-01T09:50:42.393Z,82.16
2019-03-01T09:52:55.650Z,82.51
2019-03-01T09:55:47.583Z,83.04
2019-03-01T09:57:58.368Z,83.37
2019-03-01T10:00:56.227Z,82.72
2019-03-01T10:03:03.652Z,82.99
2019-03-01T10:05:14.501Z,83.43
2019-03-01T10:07:25.293Z,83.54
2019-03-01T10:09:36.146Z,83.78
2019-03-01T10:11:46.936Z,83.91
2019-03-01T10:13:57.772Z,84.29
2019-03-01T10:16:08.608Z,84.32
2019-03-01T10:18:19.410Z,84.30
2019-03-01T10:20:30.248Z,84.54
2019-03-01T10:22:41.141Z,84.91
2019-03-01T10:24:51.960Z,85.04
2019-03-01T10:27:03.118Z,84.99
2019-03-01T10:29:15.483Z,84.94
2019-03-01T10:31:26.367Z,84.69
2019-03-01T10:33:37.138Z,84.91
2019-03-01T10:35:47.940Z,85.27
2019-03-01T10:37:58.772Z,85.37
2019-03-01T10:40:29.477Z,85.44
2019-03-01T10:42:40.294Z,85.58
2019-03-01T10:44:51.109Z,85.34
2019-03-01T10:47:01.936Z,84.72
2019-03-01T10:49:12.745Z,84.67
2019-03-01T10:51:23.579Z,84.71
2019-03-01T10:53:34.442Z,84.95
2019-03-01T10:55:45.216Z,84.92
2019-03-01T10:57:56.030Z,84.88
2019-03-01T11:00:46.587Z,84.77
2019-03-01T11:02:57.504Z,84.57
2019-03-01T11:05:08.402Z,83.90
2019-03-01T11:07:19.319Z,84.08
2019-03-01T11:09:30.128Z,84.36
2019-03-01T11:11:48.252Z,84.29
2019-03-01T11:13:59.059Z,84.22
2019-03-01T11:16:09.854Z,84.18
2019-03-01T11:18:20.706Z,84.56
2019-03-01T11:20:31.513Z,84.72
2019-03-01T11:22:42.459Z,84.77
2019-03-01T11:24:53.260Z,85.47
2019-03-01T11:27:12.690Z,85.67
2019-03-01T11:29:16.817Z,85.49
2019-03-01T11:31:27.635Z,85.71
2019-03-01T11:33:38.469Z,85.69
2019-03-01T11:35:49.264Z,85.89
2019-03-01T11:38:00.131Z,86.20
2019-03-01T11:40:53.506Z,86.10
2019-03-01T11:43:46.956Z,86.03
2019-03-01T11:45:57.771Z,86.15
2019-03-01T11:48:08.722Z,86.12
2019-03-01T11:50:39.377Z,86.15
2019-03-01T11:52:50.305Z,86.55
2019-03-01T11:55:01.090Z,86.56
2019-03-01T11:57:11.887Z,86.64
2019-03-01T11:59:22.830Z,86.09
2019-03-01T12:01:33.645Z,86.23
2019-03-01T12:03:44.466Z,86.16
2019-03-01T12:05:55.279Z,85.81
2019-03-01T12:08:06.114Z,85.42
2019-03-01T12:10:58.565Z,85.64
2019-03-01T12:13:09.404Z,85.62
2019-03-01T12:15:20.296Z,85.61
2019-03-01T12:17:31.087Z,85.82
2019-03-01T12:19:41.915Z,85.76
2019-03-01T12:21:52.726Z,85.92
2019-03-01T12:24:03.573Z,85.92
2019-03-01T12:26:14.380Z,85.76
2019-03-01T12:28:25.168Z,85.84
2019-03-01T12:30:35.988Z,85.45
2019-03-01T12:35:19.187Z,85.14
2019-03-01T12:37:30.077Z,84.99
2019-03-01T12:39:40.933Z,85.08
2019-03-01T12:41:51.737Z,85.00
2019-03-01T12:44:02.572Z,84.88
2019-03-01T12:46:13.392Z,84.82
2019-03-01T12:48:24.212Z,84.70
2019-03-01T12:50:35.034Z,84.72
2019-03-01T12:52:45.925Z,84.81
2019-03-01T12:54:56.789Z,85.09
2019-03-01T12:57:07.601Z,85.22
2019-03-01T12:59:18.401Z,85.41
2019-03-01T13:01:29.370Z,84.99
2019-03-01T13:03:40.665Z,84.81
2019-03-01T13:05:52.896Z,84.73
2019-03-01T13:08:03.802Z,85.00
2019-03-01T13:10:36.908Z,84.68
2019-03-01T13:12:48.030Z,84.50
2019-03-01T13:14:58.849Z,84.06
2019-03-01T13:17:09.669Z,83.22
2019-03-01T13:19:23.404Z,83.45
2019-03-01T13:21:33.189Z,83.37
2019-03-01T13:23:45.471Z,83.34
2019-03-01T13:25:56.729Z,83.12
2019-03-01T13:28:07.638Z,83.39
2019-03-01T13:31:00.138Z,83.70
2019-03-01T13:33:10.941Z,83.29
2019-03-01T13:35:22.342Z,82.66
2019-03-01T13:37:34.473Z,82.44
2019-03-01T13:39:48.667Z,81.70
2019-03-01T13:41:58.037Z,82.30
2019-03-01T13:44:08.838Z,82.29
2019-03-01T13:46:19.645Z,82.25
2019-03-01T13:48:30.507Z,82.19
2019-03-01T13:50:42.342Z,82.08
2019-03-01T13:52:54.037Z,80.99
2019-03-01T13:55:46.533Z,80.71
2019-03-01T13:57:57.356Z,80.47
2019-03-01T14:00:49.793Z,80.84
2019-03-01T14:03:00.625Z,79.77
2019-03-01T14:05:13.290Z,78.74
2019-03-01T14:07:24.386Z,78.96
2019-03-01T14:09:35.229Z,77.91
2019-03-01T14:11:46.056Z,77.43
2019-03-01T14:13:56.968Z,77.01
2019-03-01T14:16:07.731Z,77.59
2019-03-01T14:18:18.541Z,77.52
2019-03-01T14:20:29.366Z,78.70
2019-03-01T14:22:40.197Z,77.59
2019-03-01T14:24:51.023Z,77.89
2019-03-01T14:27:01.818Z,77.73
2019-03-01T14:29:12.834Z,78.06
2019-03-01T14:31:25.435Z,78.02
2019-03-01T14:33:36.260Z,77.65
2019-03-01T14:35:47.054Z,78.02
2019-03-01T14:37:57.905Z,79.18
2019-03-01T14:40:50.383Z,78.62
2019-03-01T14:43:01.236Z,78.87
2019-03-01T14:45:53.687Z,78.65
2019-03-01T14:48:05.200Z,78.30
2019-03-01T14:50:37.065Z,78.67
2019-03-01T14:52:47.973Z,79.15
2019-03-01T14:54:58.808Z,79.79
2019-03-01T14:57:51.261Z,80.11
2019-03-01T15:00:49.607Z,80.66
2019-03-01T15:03:38.136Z,81.09
2019-03-01T15:05:48.984Z,81.52
2019-03-01T15:07:59.789Z,81.87
2019-03-01T15:10:52.279Z,81.69
2019-03-01T15:13:03.072Z,81.95
2019-03-01T15:15:55.545Z,81.99
2019-03-01T15:18:06.573Z,82.28
2019-03-01T15:20:23.306Z,82.24
2019-03-01T15:22:30.122Z,81.38
2019-03-01T15:24:40.939Z,79.33
2019-03-01T15:26:51.764Z,78.20
2019-03-01T15:29:02.683Z,76.26
2019-03-01T15:31:13.512Z,75.63
2019-03-01T15:33:24.324Z,76.06
2019-03-01T15:35:36.367Z,77.09
2019-03-01T15:37:47.904Z,78.16
2019-03-01T15:39:58.804Z,78.87
2019-03-01T15:42:10.072Z,79.52
2019-03-01T15:44:22.402Z,80.12
2019-03-01T15:46:33.208Z,80.60
2019-03-01T15:48:44.126Z,81.27
2019-03-01T15:50:54.957Z,81.51
2019-03-01T15:53:05.785Z,81.49
2019-03-01T15:55:16.689Z,81.73
2019-03-01T15:57:27.538Z,81.44
2019-03-01T15:59:38.357Z,81.38
2019-03-01T16:01:49.195Z,81.11
2019-03-01T16:04:00.028Z,81.49
2019-03-01T16:06:17.523Z,81.61
2019-03-01T16:08:23.583Z,81.41
2019-03-01T16:10:36.122Z,81.30
2019-03-01T16:12:47.236Z,81.12
2019-03-01T16:15:00.487Z,81.12
2019-03-01T16:17:10.835Z,81.42
2019-03-01T16:19:21.642Z,81.71
2019-03-01T16:21:32.475Z,81.83
2019-03-01T16:23:43.284Z,81.69
2019-03-01T16:25:56.359Z,81.92
2019-03-01T16:28:06.848Z,82.02
2019-03-01T16:30:59.305Z,82.44
2019-03-01T16:33:10.134Z,82.23
2019-03-01T16:35:20.943Z,81.45
2019-03-01T16:37:31.785Z,81.84
2019-03-01T16:39:42.599Z,82.23
2019-03-01T16:41:53.431Z,82.47
2019-03-01T16:44:07.073Z,82.95
2019-03-01T16:46:17.118Z,82.99
2019-03-01T16:48:27.966Z,82.96
2019-03-01T16:50:40.683Z,83.37
2019-03-01T16:52:51.591Z,83.68
2019-03-01T16:55:44.061Z,83.95
2019-03-01T16:58:05.989Z,84.38
2019-03-01T17:00:50.786Z,84.62
2019-03-01T17:03:43.677Z,84.69
2019-03-01T17:05:55.147Z,84.96
2019-03-01T17:08:07.245Z,85.26
2019-03-01T17:10:18.057Z,85.23
2019-03-01T17:12:28.870Z,85.42
2019-03-01T17:14:39.823Z,85.53
2019-03-01T17:16:50.644Z,85.58
2019-03-01T17:19:01.523Z,85.69
2019-03-01T17:21:15.479Z,85.82
2019-03-01T17:23:25.075Z,85.92
2019-03-01T17:25:35.904Z,86.15
2019-03-01T17:27:46.714Z,86.20
2019-03-01T17:29:57.593Z,86.23
2019-03-01T17:32:08.398Z,86.25
2019-03-01T17:34:21.791Z,86.26
2019-03-01T17:36:31.946Z,86.30
2019-03-01T17:39:03.221Z,86.35
2019-03-01T17:41:14.043Z,86.35
2019-03-01T17:43:26.050Z,86.32
2019-03-01T17:45:37.596Z,86.39
2019-03-01T17:47:48.601Z,86.57
2019-03-01T17:49:59.416Z,86.56
2019-03-01T17:52:10.276Z,86.57
2019-03-01T17:54:22.236Z,86.96
2019-03-01T17:56:33.877Z,85.04
2019-03-01T17:58:44.669Z,84.23
2019-03-01T18:00:58.725Z,84.18
2019-03-01T18:03:08.189Z,84.25
2019-03-01T18:05:19.085Z,84.36
2019-03-01T18:07:29.927Z,84.53
2019-03-01T18:09:40.735Z,84.36
2019-03-01T18:11:51.588Z,84.34
2019-03-01T18:14:02.489Z,84.33
2019-03-01T18:16:13.412Z,84.50
2019-03-01T18:18:24.208Z,84.76
2019-03-01T18:20:37.688Z,84.51
2019-03-01T18:22:47.778Z,84.35
2019-03-01T18:24:58.578Z,84.64
2019-03-01T18:27:12.638Z,84.72
2019-03-01T18:29:22.146Z,84.84
2019-03-01T18:31:34.657Z,84.67
2019-03-01T18:33:45.764Z,84.68
2019-03-01T18:35:56.724Z,84.92
2019-03-01T18:38:07.547Z,84.86
2019-03-01T18:40:18.388Z,84.66
2019-03-01T18:42:29.230Z,84.57
2019-03-01T18:44:40.059Z,84.58
2019-03-01T18:46:51.594Z,84.36
2019-03-01T18:49:03.671Z,84.35
2019-03-01T18:51:14.475Z,84.73
2019-03-01T18:53:28.838Z,84.75
2019-03-01T18:55:38.059Z,84.33
2019-03-01T18:57:48.890Z,84.23
2019-03-01T19:00:00.958Z,84.32
2019-03-01T19:02:12.445Z,84.11
2019-03-01T19:04:29.629Z,84.07
2019-03-01T19:06:36.021Z,83.97
2019-03-01T19:08:46.903Z,83.94
2019-03-01T19:10:59.752Z,84.11
2019-03-01T19:13:12.398Z,84.14
2019-03-01T19:15:23.264Z,84.01
2019-03-01T19:17:36.799Z,84.09
2019-03-01T19:19:46.811Z,84.19
2019-03-01T19:21:57.638Z,84.14
2019-03-01T19:24:08.837Z,84.37
2019-03-01T19:26:21.222Z,84.48
2019-03-01T19:28:32.018Z,84.53
2019-03-01T19:30:45.931Z,84.45
2019-03-01T19:32:58.991Z,84.23
2019-03-01T19:35:50.043Z,84.18
2019-03-01T19:38:00.957Z,84.18
2019-03-01T19:40:31.725Z,84.15
2019-03-01T19:42:42.507Z,83.86
2019-03-01T19:44:53.331Z,83.21
2019-03-01T19:47:04.151Z,83.36
2019-03-01T19:49:15.002Z,83.37
2019-03-01T19:51:25.807Z,83.68
2019-03-01T19:53:37.548Z,83.34
2019-03-01T19:55:49.432Z,83.23
2019-03-01T19:58:00.225Z,82.87
2019-03-01T20:00:52.687Z,83.08
2019-03-01T20:03:06.626Z,83.20
2019-03-01T20:05:57.829Z,83.53
2019-03-01T20:08:08.761Z,83.76
2019-03-01T20:10:19.680Z,83.82
2019-03-01T20:12:30.492Z,83.83
2019-03-01T20:14:41.317Z,83.90
2019-03-01T20:16:54.911Z,84.00
2019-03-01T20:19:04.933Z,84.09
2019-03-01T20:21:15.772Z,83.94
2019-03-01T20:23:29.521Z,83.82
2019-03-01T20:25:39.929Z,83.82
2019-03-01T20:27:50.842Z,83.88
2019-03-01T20:30:04.121Z,84.13
2019-03-01T20:32:15.709Z,84.24
2019-03-01T20:34:27.346Z,84.44
2019-03-01T20:36:38.233Z,84.16
2019-03-01T20:38:49.088Z,84.11
2019-03-01T20:41:03.160Z,84.43
2019-03-01T20:43:12.789Z,84.73
2019-03-01T20:45:43.470Z,84.80
2019-03-01T20:47:54.547Z,84.61
2019-03-01T20:50:47.588Z,84.80
2019-03-01T20:52:59.790Z,84.90
2019-03-01T20:55:33.099Z,84.61
2019-03-01T20:57:43.500Z,84.61
2019-03-01T20:59:54.331Z,85.10
2019-03-01T21:02:06.219Z,85.29
2019-03-01T21:04:17.890Z,85.57
2019-03-01T21:06:28.743Z,85.67
2019-03-01T21:08:39.556Z,85.46
2019-03-01T21:10:50.867Z,85.20
2019-03-01T21:13:03.141Z,85.12
2019-03-01T21:15:55.570Z,84.92
2019-03-01T21:18:06.465Z,84.83
2019-03-01T21:20:19.581Z,84.93
2019-03-01T21:22:30.115Z,84.82
2019-03-01T21:24:40.988Z,84.70
2019-03-01T21:26:52.076Z,84.68
2019-03-01T21:29:04.529Z,84.52
2019-03-01T21:31:15.310Z,84.27
2019-03-01T21:33:27.455Z,84.34
2019-03-01T21:35:38.849Z,84.34
2019-03-01T21:38:31.333Z,84.24
2019-03-01T21:40:42.184Z,84.05
2019-03-01T21:42:57.389Z,83.77
2019-03-01T21:45:47.490Z,83.70
2019-03-01T21:47:58.359Z,83.88
2019-03-01T21:50:09.485Z,83.70
2019-03-01T21:52:20.284Z,83.54
2019-03-01T21:54:31.102Z,83.51
2019-03-01T21:56:55.357Z,83.22
2019-03-01T21:58:54.733Z,83.15
2019-03-01T22:01:05.907Z,82.90
2019-03-01T22:03:18.323Z,82.62
2019-03-01T22:05:29.189Z,82.63
2019-03-01T22:07:40.101Z,82.68
2019-03-01T22:09:51.025Z,82.70
2019-03-01T22:12:01.833Z,82.63
2019-03-01T22:14:14.283Z,82.69
2019-03-01T22:16:25.413Z,82.74
2019-03-01T22:18:36.426Z,82.68
2019-03-01T22:20:48.966Z,82.68
2019-03-01T22:22:59.754Z,82.47
2019-03-01T22:25:30.447Z,82.38
2019-03-01T22:28:22.895Z,81.80
2019-03-01T22:30:33.751Z,81.86
2019-03-01T22:32:45.459Z,82.12
2019-03-01T22:34:57.291Z,82.29
2019-03-01T22:37:08.110Z,82.42
2019-03-01T22:39:18.948Z,82.39
2019-03-01T22:41:29.768Z,82.48
2019-03-01T22:43:40.579Z,82.74
2019-03-01T22:45:51.542Z,82.47
2019-03-01T22:48:02.457Z,82.29
2019-03-01T22:50:54.929Z,82.39
2019-03-01T22:53:06.588Z,82.33
2019-03-01T22:57:57.792Z,82.38
2019-03-01T23:00:54.601Z,82.27
2019-03-01T23:03:04.507Z,82.42
2019-03-01T23:05:15.299Z,82.02
2019-03-01T23:07:26.588Z,81.78
2019-03-01T23:09:38.848Z,81.84
2019-03-01T23:11:49.739Z,81.80
2019-03-01T23:14:00.496Z,81.63
2019-03-01T23:16:11.300Z,81.51
2019-03-01T23:18:22.133Z,81.46
2019-03-01T23:20:32.944Z,81.24
2019-03-01T23:22:46.077Z,81.25
2019-03-01T23:24:56.476Z,81.28
2019-03-01T23:27:07.283Z,81.00
2019-03-01T23:29:18.834Z,80.83
2019-03-01T23:31:31.182Z,81.14
2019-03-01T23:33:42.021Z,81.20
2019-03-01T23:35:53.110Z,81.54
2019-03-01T23:38:05.625Z,81.54
2019-03-01T23:40:16.456Z,81.42
2019-03-01T23:42:27.262Z,81.50
2019-03-01T23:44:38.639Z,81.34
2019-03-01T23:46:50.921Z,81.13
2019-03-01T23:49:06.327Z,80.96
2019-03-01T23:51:14.464Z,80.91
2019-03-01T23:53:27.361Z,80.75
2019-03-01T23:55:37.965Z,80.75
2019-03-01T23:57:48.823Z,80.77
